JUJ weather

Gobernador Horacio Guzman International Airport
San Salvador de Jujuy, Jujuy Province, Argentina

Public forecast

Using degrees Celsius for public forecast. Weather courtesy of forecast.io.

Current aviation weather report (METAR) for Gobernador Horacio Guzman International Airport

Retrieved 2020/02/20 13:00 UTC (48 minutes ago):

SASJ 201300Z 18003KT 9999 FEW006 SCT020 BKN100 22/19 Q1020

Aviation forecast (TAF) for Gobernador Horacio Guzman International Airport

Retrieved 2020/02/20 12:00 UTC (2 hours ago):

TAF SASJ 201100Z 2012/2112 14010KT 9999 SCT015 SCT025 TX27/2019Z TN18/2110Z BECMG 2015/2018 20010KT 9999 SCT025 FEW040CB PROB40 TEMPO 2018/2022 7000 SHRA BKN020 FEW030CB BECMG 2100/2103 09005KT 7000 RADZ SCT010 OVC015